Time;durP1;ratioP1;P1;durP2;ratioP2;P2;SDS_P1;SDS_P2;PMS_P1;PMS_P2;Temp;Humidity;BMP_temperature;BMP_pressure;BME280_temperature;BME280_humidity;BME280_pressure;Samples;Min_cycle;Max_cycle;Signal;HPM_P1;HPM_P2
2022/11/07 00:00:11;;;;;;;5.05;4.57;;;;;;;10.68;86.57;99371.38;345614;28;1692;-74
2022/11/07 00:00:23;;;;;;;5.78;5.13;;;;;;;10.70;86.58;99377.34;346490;28;1659;-75
2022/11/07 00:00:35;;;;;;;4.95;3.85;;;;;;;10.69;86.67;99370.47;346437;28;1014;-75
2022/11/07 00:00:47;;;;;;;4.18;2.97;;;;;;;10.70;86.64;99374.75;347433;28;2011;-75
2022/11/07 00:01:12;;;;;;;2.80;2.50;;;;;;;10.74;86.64;99375.50;347349;28;1161;-75
2022/11/07 00:01:24;;;;;;;2.55;2.15;;;;;;;10.76;86.15;99379.72;346067;28;1776;-74
2022/11/07 00:01:36;;;;;;;2.40;1.58;;;;;;;10.75;86.01;99383.25;346720;28;1516;-74
2022/11/07 00:01:49;;;;;;;1.80;1.30;;;;;;;10.72;85.97;99375.53;347209;28;1652;-75
2022/11/07 00:02:02;;;;;;;2.08;1.38;;;;;;;10.76;86.11;99373.69;345991;28;1063;-74
2022/11/07 00:02:14;;;;;;;2.60;1.40;;;;;;;10.75;86.04;99377.19;345290;28;1609;-75
2022/11/07 00:02:27;;;;;;;2.28;1.33;;;;;;;10.75;85.75;99378.03;345075;28;1987;-75
2022/11/07 00:02:39;;;;;;;1.95;1.27;;;;;;;10.78;86.21;99380.53;345922;28;2139;-75
2022/11/07 00:02:51;;;;;;;2.13;1.30;;;;;;;10.83;85.74;99384.72;346138;28;1155;-75
2022/11/07 00:03:03;;;;;;;3.08;1.30;;;;;;;10.86;85.96;99376.78;347542;28;1147;-75
2022/11/07 00:03:15;;;;;;;3.17;1.40;;;;;;;10.87;85.54;99375.91;346766;28;2123;-74
2022/11/07 00:03:27;;;;;;;2.58;1.40;;;;;;;10.82;85.36;99370.00;347298;28;1703;-74
2022/11/07 00:03:40;;;;;;;2.05;1.23;;;;;;;10.86;85.88;99379.38;346340;28;1911;-74
2022/11/07 00:03:55;;;;;;;1.75;1.10;;;;;;;10.88;85.73;99377.56;345850;28;2015;-74
2022/11/07 00:04:07;;;;;;;1.30;1.10;;;;;;;10.89;85.87;99371.47;345740;28;1058;-74
2022/11/07 00:04:19;;;;;;;1.80;1.33;;;;;;;10.86;85.87;99374.19;346066;28;1420;-75
2022/11/07 00:04:31;;;;;;;1.88;1.40;;;;;;;10.84;85.71;99371.63;346330;28;1308;-74
2022/11/07 00:04:43;;;;;;;2.38;1.30;;;;;;;10.86;85.82;99368.97;346040;28;1909;-74
2022/11/07 00:04:55;;;;;;;2.60;1.30;;;;;;;10.84;85.91;99374.22;346239;28;1553;-74
2022/11/07 00:05:08;;;;;;;2.13;1.40;;;;;;;10.85;85.64;99370.75;344861;28;1985;-75
2022/11/07 00:05:21;;;;;;;2.13;1.40;;;;;;;10.89;85.52;99372.31;344607;28;1930;-74
2022/11/07 00:05:33;;;;;;;1.52;1.35;;;;;;;10.89;85.14;99374.09;345851;28;1024;-74
2022/11/07 00:05:45;;;;;;;1.45;1.25;;;;;;;10.93;85.11;99373.06;345269;28;2352;-74
2022/11/07 00:05:56;;;;;;;1.73;1.25;;;;;;;10.92;85.62;99377.38;346032;28;1083;-75
2022/11/07 00:06:09;;;;;;;2.45;1.30;;;;;;;10.93;85.51;99367.84;347495;28;1070;-75
2022/11/07 00:06:21;;;;;;;2.63;1.40;;;;;;;10.96;84.98;99367.72;347364;28;1390;-75
2022/11/07 00:06:36;;;;;;;1.70;1.30;;;;;;;10.98;85.01;99373.72;347295;28;1133;-75
2022/11/07 00:06:48;;;;;;;1.52;1.23;;;;;;;10.98;85.21;99368.50;346663;28;1466;-74
2022/11/07 00:07:01;;;;;;;1.75;1.33;;;;;;;11.01;85.27;99373.59;346506;28;1242;-74
2022/11/07 00:07:13;;;;;;;2.45;1.40;;;;;;;11.00;84.68;99371.91;346268;28;1071;-75
2022/11/07 00:07:25;;;;;;;2.22;1.35;;;;;;;11.03;84.73;99369.19;347534;28;1378;-74
2022/11/07 00:07:37;;;;;;;1.90;1.33;;;;;;;11.04;84.79;99368.25;346437;28;2066;-74
2022/11/07 00:07:49;;;;;;;1.80;1.30;;;;;;;11.04;84.51;99370.88;346435;28;2010;-75
2022/11/07 00:08:01;;;;;;;2.78;1.40;;;;;;;11.07;84.62;99368.16;346515;28;1030;-75
2022/11/07 00:08:13;;;;;;;2.50;1.30;;;;;;;11.11;84.57;99374.94;345723;28;1930;-75
2022/11/07 00:08:30;;;;;;;2.40;1.40;;;;;;;11.12;84.75;99370.56;346423;28;1379;-74
2022/11/07 00:08:42;;;;;;;2.08;1.30;;;;;;;11.12;84.43;99374.00;345895;28;1693;-74
2022/11/07 00:08:54;;;;;;;2.22;1.25;;;;;;;11.12;84.64;99371.41;346294;28;1098;-75
2022/11/07 00:09:06;;;;;;;2.20;1.30;;;;;;;11.10;84.24;99368.03;346338;28;1019;-75
2022/11/07 00:09:19;;;;;;;1.60;1.25;;;;;;;11.13;84.24;99369.69;346084;28;1349;-76
2022/11/07 00:09:31;;;;;;;1.58;1.30;;;;;;;11.15;84.15;99371.31;346199;28;1184;-77
2022/11/07 00:09:43;;;;;;;2.13;1.40;;;;;;;11.15;84.30;99371.31;345292;28;1964;-77
2022/11/07 00:09:55;;;;;;;3.03;1.50;;;;;;;11.17;84.04;99376.47;346353;28;1881;-75
2022/11/07 00:10:07;;;;;;;3.38;1.50;;;;;;;11.15;84.44;99376.50;346242;28;1165;-75
2022/11/07 00:10:19;;;;;;;4.10;1.45;;;;;;;11.10;84.22;99377.59;346568;28;1302;-74
2022/11/07 00:10:31;;;;;;;2.78;1.40;;;;;;;11.09;83.96;99375.91;347396;28;1062;-75
2022/11/07 00:10:43;;;;;;;2.10;1.40;;;;;;;11.04;84.08;99373.47;346192;28;1925;-74
2022/11/07 00:10:55;;;;;;;2.80;1.40;;;;;;;11.00;84.48;99369.28;346252;28;1954;-74
2022/11/07 00:11:07;;;;;;;2.80;1.35;;;;;;;11.02;84.39;99374.44;346173;28;1588;-74
2022/11/07 00:11:19;;;;;;;1.73;1.30;;;;;;;10.99;84.64;99380.63;346448;28;1966;-74
2022/11/07 00:11:31;;;;;;;1.60;1.27;;;;;;;10.93;84.75;99375.66;347501;28;1154;-74
2022/11/07 00:11:43;;;;;;;1.63;1.30;;;;;;;10.88;85.00;99374.97;346143;28;1757;-74
2022/11/07 00:11:55;;;;;;;1.80;1.38;;;;;;;10.89;84.80;99374.91;346957;28;1799;-74
2022/11/07 00:12:08;;;;;;;1.90;1.40;;;;;;;10.92;85.08;99379.97;346178;28;1074;-74
2022/11/07 00:12:20;;;;;;;2.10;1.48;;;;;;;10.95;84.90;99379.03;346665;28;1697;-74
2022/11/07 00:12:35;;;;;;;2.83;1.58;;;;;;;10.95;84.98;99379.88;347554;28;1115;-74
2022/11/07 00:12:47;;;;;;;2.55;1.48;;;;;;;10.99;84.53;99371.06;346174;28;1507;-74
2022/11/07 00:12:59;;;;;;;1.80;1.40;;;;;;;10.99;84.60;99375.41;345983;28;1074;-74
2022/11/07 00:13:11;;;;;;;2.50;1.35;;;;;;;10.98;84.56;99373.72;347089;28;1158;-74
2022/11/07 00:13:24;;;;;;;2.83;1.30;;;;;;;10.97;84.68;99377.22;348151;28;1297;-74
2022/11/07 00:13:36;;;;;;;2.45;1.30;;;;;;;10.95;84.96;99379.03;347573;28;2386;-74
2022/11/07 00:13:48;;;;;;;2.05;1.30;;;;;;;10.93;85.05;99375.66;346446;28;1408;-74
2022/11/07 00:14:00;;;;;;;2.17;1.30;;;;;;;10.97;84.53;99378.06;346138;28;1413;-74
2022/11/07 00:14:12;;;;;;;2.08;1.38;;;;;;;11.02;84.67;99377.88;346013;28;2082;-74
2022/11/07 00:14:24;;;;;;;1.80;1.30;;;;;;;11.04;84.93;99383.88;346577;28;1117;-74
2022/11/07 00:14:36;;;;;;;1.85;1.40;;;;;;;11.04;84.61;99377.84;346381;28;1229;-74
2022/11/07 00:14:48;;;;;;;1.55;1.40;;;;;;;11.07;84.63;99378.56;346950;28;1701;-74
2022/11/07 00:15:02;;;;;;;1.77;1.50;;;;;;;11.07;84.52;99378.56;345848;28;1886;-74
2022/11/07 00:15:14;;;;;;;1.65;1.52;;;;;;;11.10;84.55;99382.78;346077;28;1479;-74
2022/11/07 00:15:25;;;;;;;2.85;1.50;;;;;;;11.09;84.09;99379.34;346134;28;1408;-74
2022/11/07 00:15:37;;;;;;;2.80;1.40;;;;;;;11.05;84.45;99375.19;345346;28;1743;-74
2022/11/07 00:15:49;;;;;;;2.30;1.23;;;;;;;11.03;84.29;99377.00;345746;28;1785;-74
2022/11/07 00:16:04;;;;;;;2.45;1.20;;;;;;;11.05;84.51;99380.38;344899;28;1226;-74
2022/11/07 00:16:16;;;;;;;2.70;1.30;;;;;;;11.04;84.09;99378.66;344349;28;1805;-74
2022/11/07 00:16:28;;;;;;;1.58;1.20;;;;;;;11.04;84.16;99383.88;346127;28;1199;-74
2022/11/07 00:16:40;;;;;;;1.42;1.30;;;;;;;11.08;84.54;99382.00;344679;28;1817;-75
2022/11/07 00:16:52;;;;;;;1.40;1.30;;;;;;;11.06;84.26;99381.22;344321;28;1927;-75
2022/11/07 00:17:06;;;;;;;1.40;1.30;;;;;;;11.03;84.50;99382.19;344133;28;1190;-75
2022/11/07 00:17:18;;;;;;;1.40;1.10;;;;;;;11.11;84.54;99384.50;344592;28;1523;-74
2022/11/07 00:17:30;;;;;;;1.40;1.13;;;;;;;11.07;83.93;99377.72;344844;28;1031;-75
2022/11/07 00:17:42;;;;;;;2.03;1.30;;;;;;;11.04;84.39;99383.88;344489;28;1880;-75
2022/11/07 00:17:54;;;;;;;3.22;1.33;;;;;;;11.05;83.96;99380.38;345940;28;1827;-75
2022/11/07 00:18:05;;;;;;;3.40;1.23;;;;;;;11.05;84.11;99385.59;344594;28;1079;-75
2022/11/07 00:18:17;;;;;;;2.85;1.20;;;;;;;11.02;84.12;99380.47;344273;28;1298;-74
2022/11/07 00:18:29;;;;;;;1.60;1.20;;;;;;;11.06;84.27;99382.06;344694;28;1228;-75
2022/11/07 00:18:41;;;;;;;1.73;1.30;;;;;;;11.09;83.92;99376.75;344745;28;1726;-74
2022/11/07 00:18:54;;;;;;;2.35;1.30;;;;;;;11.09;84.19;99381.13;344953;28;1840;-74
2022/11/07 00:19:06;;;;;;;2.42;1.30;;;;;;;11.12;84.09;99386.19;346553;28;777;-74
2022/11/07 00:19:19;;;;;;;2.03;1.33;;;;;;;11.15;83.72;99386.91;346045;28;1326;-75
2022/11/07 00:19:31;;;;;;;2.10;1.40;;;;;;;11.17;83.60;99389.47;346238;28;1893;-75
2022/11/07 00:19:43;;;;;;;4.07;1.53;;;;;;;11.14;83.88;99390.41;345620;28;2003;-77
2022/11/07 00:19:55;;;;;;;3.70;1.50;;;;;;;11.16;83.48;99380.78;344986;28;2007;-77
2022/11/07 00:20:08;;;;;;;4.55;1.45;;;;;;;11.20;83.66;99384.97;344691;28;1214;-77
2022/11/07 00:20:20;;;;;;;3.03;1.35;;;;;;;11.23;83.52;99383.16;343948;28;1663;-74
2022/11/07 00:20:32;;;;;;;1.80;1.27;;;;;;;11.24;83.95;99387.47;345828;28;1277;-74
2022/11/07 00:20:44;;;;;;;1.38;1.10;;;;;;;11.24;83.31;99385.69;343107;28;1591;-74
2022/11/07 00:21:03;;;;;;;1.40;1.20;;;;;;;11.23;83.41;99389.22;343814;28;1925;-75
2022/11/07 00:21:15;;;;;;;1.75;1.60;;;;;;;11.19;83.85;99387.66;343198;28;1063;-74
2022/11/07 00:21:27;;;;;;;2.30;1.73;;;;;;;11.18;83.38;99391.97;343628;28;1044;-75
2022/11/07 00:21:40;;;;;;;2.70;1.70;;;;;;;11.20;83.51;99395.38;342939;28;1903;-74
2022/11/07 00:21:52;;;;;;;2.25;1.60;;;;;;;11.23;83.28;99390.94;344069;28;1440;-75
2022/11/07 00:22:04;;;;;;;1.73;1.50;;;;;;;11.13;83.67;99391.34;345984;28;1053;-75
2022/11/07 00:22:16;;;;;;;1.65;1.40;;;;;;;11.13;84.22;99393.09;344636;28;1274;-75
2022/11/07 00:22:28;;;;;;;1.83;1.33;;;;;;;11.14;83.76;99393.00;344979;28;1067;-75
2022/11/07 00:22:39;;;;;;;2.28;1.48;;;;;;;11.15;84.07;99392.13;344301;28;1868;-74
2022/11/07 00:22:52;;;;;;;2.50;1.40;;;;;;;11.19;83.94;99393.69;342262;28;1582;-74
2022/11/07 00:23:03;;;;;;;2.67;1.45;;;;;;;11.22;83.60;99397.06;343330;28;1882;-74
2022/11/07 00:23:15;;;;;;;1.35;1.25;;;;;;;11.20;84.03;99394.53;343813;28;1089;-74
2022/11/07 00:23:28;;;;;;;1.95;1.38;;;;;;;11.24;83.77;99397.88;342699;28;2692;-74
2022/11/07 00:23:41;;;;;;;1.98;1.50;;;;;;;11.25;83.53;99399.53;344222;28;1778;-74
2022/11/07 00:23:53;;;;;;;1.98;1.60;;;;;;;11.25;83.65;99394.34;344127;28;1806;-74
2022/11/07 00:24:06;;;;;;;2.17;1.60;;;;;;;11.22;83.49;99400.53;342695;28;1103;-74
2022/11/07 00:24:18;;;;;;;2.22;1.63;;;;;;;11.26;83.76;99394.28;342612;28;1830;-74
2022/11/07 00:24:30;;;;;;;1.70;1.50;;;;;;;11.26;83.71;99396.06;343813;28;1201;-75
2022/11/07 00:24:42;;;;;;;1.58;1.40;;;;;;;11.22;83.63;99399.69;343534;28;1785;-75
2022/11/07 00:24:54;;;;;;;1.60;1.35;;;;;;;11.24;83.92;99397.88;345188;28;1894;-75
2022/11/07 00:25:07;;;;;;;3.60;1.40;;;;;;;11.20;83.62;99400.56;345429;28;1619;-74
2022/11/07 00:25:19;;;;;;;4.68;1.45;;;;;;;11.19;83.92;99398.91;345625;28;1724;-74
2022/11/07 00:25:30;;;;;;;4.20;1.48;;;;;;;11.17;83.58;99398.09;345867;28;1575;-75
2022/11/07 00:25:42;;;;;;;3.92;1.40;;;;;;;11.16;84.05;99399.00;346547;28;744;-75
2022/11/07 00:26:01;;;;;;;2.83;1.30;;;;;;;11.09;84.21;99396.72;346209;28;1097;-75
2022/11/07 00:26:14;;;;;;;1.40;1.30;;;;;;;11.12;84.11;99401.78;347496;28;1192;-75
2022/11/07 00:26:26;;;;;;;1.60;1.40;;;;;;;11.12;84.37;99400.03;346241;28;1892;-75
2022/11/07 00:26:39;;;;;;;2.50;1.60;;;;;;;11.12;84.03;99402.63;345817;28;1917;-75
2022/11/07 00:26:51;;;;;;;2.58;1.60;;;;;;;11.15;84.57;99402.53;346201;28;1208;-75
2022/11/07 00:27:03;;;;;;;2.30;1.48;;;;;;;11.17;84.47;99402.47;345165;28;1979;-75
2022/11/07 00:27:15;;;;;;;1.77;1.33;;;;;;;11.18;84.35;99399.78;343777;28;1160;-75
2022/11/07 00:27:27;;;;;;;1.65;1.38;;;;;;;11.21;84.32;99401.44;343644;28;1015;-75
2022/11/07 00:27:39;;;;;;;1.92;1.40;;;;;;;11.19;84.05;99393.69;343417;28;1064;-75
2022/11/07 00:27:51;;;;;;;2.05;1.60;;;;;;;11.18;84.32;99399.78;343186;28;1798;-75
2022/11/07 00:28:03;;;;;;;2.10;1.73;;;;;;;11.16;84.43;99401.59;345088;28;744;-75
2022/11/07 00:28:15;;;;;;;2.28;1.77;;;;;;;11.18;84.09;99409.34;344912;28;1074;-74
2022/11/07 00:28:27;;;;;;;2.28;1.65;;;;;;;11.19;83.86;99408.47;342376;28;1165;-74
2022/11/07 00:28:41;;;;;;;2.13;1.52;;;;;;;11.18;84.18;99402.38;343506;28;1564;-74
2022/11/07 00:28:53;;;;;;;2.17;1.65;;;;;;;11.22;83.87;99402.28;346030;28;1865;-74
2022/11/07 00:29:05;;;;;;;2.17;1.58;;;;;;;11.26;83.99;99403.84;343495;28;1068;-74
2022/11/07 00:29:19;;;;;;;2.40;1.40;;;;;;;11.29;84.02;99408.91;343309;28;1321;-74
2022/11/07 00:29:31;;;;;;;2.47;1.40;;;;;;;11.26;84.11;99406.47;345004;28;1274;-74
2022/11/07 00:29:42;;;;;;;3.20;2.25;;;;;;;11.26;84.23;99403.84;344106;28;1755;-74
2022/11/07 00:29:55;;;;;;;4.65;4.18;;;;;;;11.24;84.13;99405.66;344293;28;1843;-74
2022/11/07 00:30:07;;;;;;;5.57;4.85;;;;;;;11.25;84.12;99408.22;342049;28;1852;-76
2022/11/07 00:30:19;;;;;;;4.47;3.67;;;;;;;11.27;84.10;99405.53;343055;28;1238;-74
2022/11/07 00:30:31;;;;;;;3.85;3.10;;;;;;;11.31;84.19;99412.34;344073;28;1166;-74
2022/11/07 00:30:43;;;;;;;3.20;2.85;;;;;;;11.27;84.02;99410.75;343106;28;1927;-75
2022/11/07 00:30:57;;;;;;;3.03;2.13;;;;;;;11.27;83.71;99406.41;343163;28;1831;-75
2022/11/07 00:31:11;;;;;;;2.38;1.50;;;;;;;11.18;83.81;99406.75;343907;28;1608;-75
2022/11/07 00:31:23;;;;;;;1.60;1.40;;;;;;;11.23;83.92;99409.16;343812;28;1184;-74
2022/11/07 00:31:35;;;;;;;2.15;1.33;;;;;;;11.23;84.17;99402.22;343078;28;1958;-75
2022/11/07 00:31:48;;;;;;;2.55;1.30;;;;;;;11.27;84.21;99408.13;343851;28;2046;-75
2022/11/07 00:32:00;;;;;;;2.33;1.30;;;;;;;11.27;84.04;99410.75;345431;28;1318;-75
2022/11/07 00:32:12;;;;;;;2.05;1.20;;;;;;;11.29;83.79;99406.31;346028;28;1059;-75
2022/11/07 00:32:23;;;;;;;1.60;1.10;;;;;;;11.30;83.59;99406.25;346216;28;1306;-75
2022/11/07 00:32:35;;;;;;;1.65;1.10;;;;;;;11.33;83.58;99405.31;346298;28;1002;-75
2022/11/07 00:32:47;;;;;;;1.90;1.13;;;;;;;11.35;83.66;99408.72;346325;28;2006;-75
2022/11/07 00:32:59;;;;;;;2.63;1.38;;;;;;;11.37;83.71;99405.13;346760;28;1787;-76
2022/11/07 00:33:11;;;;;;;2.37;1.67;;;;;;;11.39;83.83;99407.69;346418;28;1149;-77
2022/11/07 00:33:24;;;;;;;3.13;2.00;;;;;;;11.42;83.55;99406.69;347492;28;1135;-77
2022/11/07 00:33:35;;;;;;;3.15;1.88;;;;;;;11.42;83.75;99407.53;346431;28;1237;-76
2022/11/07 00:33:48;;;;;;;2.20;1.58;;;;;;;11.43;83.45;99410.97;346262;28;1855;-74
2022/11/07 00:34:00;;;;;;;2.13;1.50;;;;;;;11.46;83.76;99405.66;346586;28;2051;-74
2022/11/07 00:34:12;;;;;;;2.20;1.60;;;;;;;11.45;83.25;99414.38;346083;28;1297;-74
2022/11/07 00:34:24;;;;;;;1.90;1.40;;;;;;;11.47;83.18;99413.41;345675;28;1820;-74
2022/11/07 00:34:36;;;;;;;2.10;1.65;;;;;;;11.48;83.36;99415.09;345547;28;1628;-74
2022/11/07 00:34:48;;;;;;;1.92;1.70;;;;;;;11.50;83.26;99408.06;346597;28;1446;-74
2022/11/07 00:35:00;;;;;;;1.83;1.60;;;;;;;11.48;83.26;99409.06;345804;28;2108;-74
2022/11/07 00:35:12;;;;;;;2.75;1.60;;;;;;;11.41;83.35;99413.66;347451;28;1060;-74
2022/11/07 00:35:24;;;;;;;4.05;2.05;;;;;;;11.41;83.26;99411.06;347358;28;1263;-74
2022/11/07 00:35:41;;;;;;;4.10;2.78;;;;;;;11.31;83.04;99404.53;347215;28;1101;-74
2022/11/07 00:35:52;;;;;;;5.28;4.78;;;;;;;11.30;83.70;99413.22;346759;28;1571;-74
2022/11/07 00:36:05;;;;;;;5.30;4.80;;;;;;;11.24;83.22;99413.47;347276;28;1057;-74
2022/11/07 00:36:19;;;;;;;4.88;4.47;;;;;;;11.28;83.77;99417.66;347759;28;1270;-74
2022/11/07 00:36:31;;;;;;;5.15;4.65;;;;;;;11.32;83.92;99414.03;347704;28;1008;-74
2022/11/07 00:36:43;;;;;;;4.63;4.20;;;;;;;11.35;83.80;99411.31;345518;28;1767;-74
2022/11/07 00:36:55;;;;;;;4.05;3.42;;;;;;;11.36;83.83;99418.19;346005;28;1856;-74
2022/11/07 00:37:07;;;;;;;4.30;2.97;;;;;;;11.38;83.42;99405.97;344781;28;1035;-74
2022/11/07 00:37:19;;;;;;;4.05;3.00;;;;;;;11.43;83.41;99411.84;344152;28;1651;-74
2022/11/07 00:37:31;;;;;;;3.60;2.90;;;;;;;11.47;83.28;99408.22;344617;28;1020;-74
2022/11/07 00:37:43;;;;;;;3.10;2.83;;;;;;;11.48;83.39;99414.25;344229;28;2008;-74
2022/11/07 00:37:55;;;;;;;3.22;2.90;;;;;;;11.47;83.30;99410.81;344989;28;1771;-74
2022/11/07 00:38:07;;;;;;;3.13;2.83;;;;;;;11.46;83.43;99405.66;343304;28;1223;-74
2022/11/07 00:38:20;;;;;;;2.92;2.63;;;;;;;11.46;82.90;99416.06;343554;28;2106;-74
2022/11/07 00:38:32;;;;;;;2.95;2.33;;;;;;;11.50;83.16;99413.28;343498;28;1199;-74
2022/11/07 00:38:44;;;;;;;3.58;2.28;;;;;;;11.51;83.23;99416.72;343306;28;1886;-74
2022/11/07 00:38:56;;;;;;;3.72;2.80;;;;;;;11.53;83.00;99413.16;345303;28;2315;-74
2022/11/07 00:39:11;;;;;;;4.25;3.13;;;;;;;11.53;83.16;99413.16;346586;28;1235;-74
2022/11/07 00:39:23;;;;;;;3.70;3.08;;;;;;;11.55;82.69;99413.97;347607;28;1273;-74
2022/11/07 00:39:35;;;;;;;3.08;2.72;;;;;;;11.54;82.63;99414.84;347663;28;1190;-74
2022/11/07 00:39:47;;;;;;;2.55;2.25;;;;;;;11.53;82.90;99412.31;345805;28;1765;-74
2022/11/07 00:39:59;;;;;;;2.30;2.10;;;;;;;11.54;82.62;99414.84;347149;28;1893;-74
2022/11/07 00:40:11;;;;;;;3.03;2.28;;;;;;;11.54;82.62;99417.44;347888;28;735;-74
2022/11/07 00:40:23;;;;;;;3.10;2.55;;;;;;;11.56;82.75;99413.03;346310;28;1843;-74
2022/11/07 00:40:35;;;;;;;2.80;2.42;;;;;;;11.57;82.65;99413.91;346963;28;1101;-74
2022/11/07 00:41:02;;;;;;;2.85;2.15;;;;;;;11.57;82.82;99409.53;346173;28;2054;-74
2022/11/07 00:41:14;;;;;;;3.80;2.10;;;;;;;11.59;82.64;99412.91;346098;28;909;-75
2022/11/07 00:41:26;;;;;;;4.25;3.05;;;;;;;11.60;82.55;99412.00;347716;28;1097;-75
2022/11/07 00:41:38;;;;;;;4.15;3.13;;;;;;;11.64;82.24;99409.28;346500;28;2125;-74
2022/11/07 00:41:50;;;;;;;5.70;4.57;;;;;;;11.65;82.28;99410.97;346851;28;1949;-74
2022/11/07 00:42:02;;;;;;;5.78;4.35;;;;;;;11.64;82.43;99409.28;346429;28;1876;-74
2022/11/07 00:42:14;;;;;;;5.13;4.20;;;;;;;11.60;81.96;99409.41;346272;28;2762;-75
2022/11/07 00:42:26;;;;;;;3.85;3.17;;;;;;;11.59;82.13;99406.88;346343;28;1216;-75
2022/11/07 00:42:38;;;;;;;3.50;2.90;;;;;;;11.62;82.46;99405.91;346155;28;1058;-75
2022/11/07 00:42:50;;;;;;;3.55;2.60;;;;;;;11.59;81.94;99407.72;346142;28;1828;-74
2022/11/07 00:43:02;;;;;;;3.42;2.50;;;;;;;11.62;82.35;99408.50;346123;28;1513;-74
2022/11/07 00:43:14;;;;;;;3.50;2.38;;;;;;;11.64;82.37;99406.69;346088;28;1264;-74
2022/11/07 00:43:27;;;;;;;4.10;2.70;;;;;;;11.67;81.91;99416.94;346173;28;1249;-74
2022/11/07 00:43:39;;;;;;;4.43;2.97;;;;;;;11.64;81.90;99415.34;345836;28;1504;-74
2022/11/07 00:43:51;;;;;;;6.28;5.05;;;;;;;11.65;82.29;99410.97;345673;28;1856;-75
2022/11/07 00:44:03;;;;;;;7.25;6.03;;;;;;;11.66;81.98;99410.06;347477;28;1014;-75
2022/11/07 00:44:15;;;;;;;5.90;4.78;;;;;;;11.66;82.19;99408.31;347894;28;1240;-75
2022/11/07 00:44:27;;;;;;;4.00;2.97;;;;;;;11.68;82.22;99409.09;346432;28;1102;-75
2022/11/07 00:44:39;;;;;;;3.42;2.83;;;;;;;11.70;82.31;99406.44;345736;28;1919;-75
2022/11/07 00:44:51;;;;;;;3.33;2.80;;;;;;;11.63;82.17;99408.44;346548;28;1436;-74
2022/11/07 00:45:03;;;;;;;3.10;2.80;;;;;;;11.63;81.93;99407.56;347757;28;1116;-74
2022/11/07 00:45:15;;;;;;;2.72;2.42;;;;;;;11.65;82.12;99410.97;346157;28;1608;-74
2022/11/07 00:45:27;;;;;;;2.50;2.30;;;;;;;11.66;82.20;99404.84;346692;28;1496;-75
2022/11/07 00:45:39;;;;;;;2.72;2.42;;;;;;;11.67;82.02;99409.13;346796;28;1748;-75
2022/11/07 00:45:52;;;;;;;3.10;2.80;;;;;;;11.69;81.69;99404.72;346506;28;1054;-75
2022/11/07 00:46:06;;;;;;;3.30;2.90;;;;;;;11.72;81.93;99412.41;347702;28;1054;-75
2022/11/07 00:46:19;;;;;;;3.30;2.70;;;;;;;11.72;81.95;99402.00;347580;28;1296;-75
2022/11/07 00:46:31;;;;;;;3.28;2.40;;;;;;;11.69;82.01;99410.78;347663;28;1240;-76
2022/11/07 00:46:43;;;;;;;2.90;2.00;;;;;;;11.72;81.93;99402.00;346456;28;1960;-76
2022/11/07 00:46:55;;;;;;;2.67;1.80;;;;;;;11.71;81.60;99406.38;346697;28;1905;-75
2022/11/07 00:47:06;;;;;;;1.90;1.70;;;;;;;11.73;81.72;99411.50;346361;28;1160;-75
2022/11/07 00:47:18;;;;;;;1.90;1.70;;;;;;;11.76;81.83;99403.56;346779;28;1304;-75
2022/11/07 00:47:30;;;;;;;1.70;1.60;;;;;;;11.78;81.71;99412.16;347799;28;1068;-75
2022/11/07 00:47:42;;;;;;;1.98;1.60;;;;;;;11.78;81.76;99402.59;346681;28;2089;-75
2022/11/07 00:47:54;;;;;;;2.10;1.40;;;;;;;11.80;81.63;99410.34;346817;28;1824;-75
2022/11/07 00:48:06;;;;;;;2.08;1.30;;;;;;;11.80;81.54;99408.56;347013;28;1800;-75
2022/11/07 00:48:19;;;;;;;1.40;1.30;;;;;;;11.83;81.57;99414.56;347041;28;1096;-75
2022/11/07 00:48:31;;;;;;;1.73;1.60;;;;;;;11.85;81.19;99410.13;347795;28;1273;-75
2022/11/07 00:48:43;;;;;;;2.80;2.08;;;;;;;11.87;81.33;99417.00;346638;28;1955;-75
2022/11/07 00:48:55;;;;;;;3.03;2.20;;;;;;;11.87;81.04;99413.53;346783;28;1709;-75
2022/11/07 00:49:07;;;;;;;2.08;1.77;;;;;;;11.87;81.41;99411.78;346166;28;1070;-75
2022/11/07 00:49:19;;;;;;;2.38;1.90;;;;;;;11.85;81.20;99412.75;345918;28;1319;-75
2022/11/07 00:49:31;;;;;;;2.35;1.80;;;;;;;11.84;81.11;99409.31;346123;28;1002;-75
2022/11/07 00:49:43;;;;;;;2.22;1.50;;;;;;;11.86;81.04;99404.88;344660;28;1960;-75
2022/11/07 00:49:55;;;;;;;2.50;1.65;;;;;;;11.86;81.14;99406.63;345936;28;1853;-75
2022/11/07 00:50:07;;;;;;;2.20;1.75;;;;;;;11.86;80.87;99410.09;344767;28;1099;-75
2022/11/07 00:50:19;;;;;;;2.03;1.63;;;;;;;11.86;80.92;99406.63;345231;28;1327;-75
2022/11/07 00:50:31;;;;;;;2.55;1.60;;;;;;;11.87;81.16;99414.41;346230;28;1138;-74
2022/11/07 00:50:43;;;;;;;2.50;1.60;;;;;;;11.88;81.39;99410.88;345065;28;1757;-74
2022/11/07 00:50:55;;;;;;;2.40;1.70;;;;;;;11.89;81.25;99410.00;346169;28;1740;-75
2022/11/07 00:51:10;;;;;;;2.35;1.77;;;;;;;11.91;81.19;99416.00;346084;28;1170;-75
2022/11/07 00:51:26;;;;;;;1.65;1.52;;;;;;;11.92;81.21;99415.06;345445;28;1696;-75
2022/11/07 00:51:38;;;;;;;1.45;1.30;;;;;;;11.91;81.10;99413.38;345169;28;1574;-74
2022/11/07 00:51:53;;;;;;;1.60;1.30;;;;;;;11.91;80.81;99413.38;347214;28;1526;-74
2022/11/07 00:52:05;;;;;;;1.90;1.30;;;;;;;11.93;81.02;99408.09;344557;28;1666;-74
2022/11/07 00:52:17;;;;;;;1.67;1.30;;;;;;;11.95;81.25;99412.34;344954;28;1280;-74
2022/11/07 00:52:29;;;;;;;1.40;1.20;;;;;;;11.97;80.94;99414.88;346038;28;1194;-74
2022/11/07 00:52:41;;;;;;;1.30;1.20;;;;;;;11.98;81.04;99414.81;347044;28;1658;-73
2022/11/07 00:52:56;;;;;;;2.03;1.40;;;;;;;11.99;80.90;99411.31;347130;28;1561;-73
2022/11/07 00:53:08;;;;;;;2.08;1.40;;;;;;;12.01;80.47;99408.63;346192;28;1323;-73
2022/11/07 00:53:20;;;;;;;1.50;1.27;;;;;;;12.03;80.45;99416.38;345993;28;2005;-73
2022/11/07 00:53:32;;;;;;;1.48;1.30;;;;;;;12.04;80.34;99407.66;344746;28;1255;-73
2022/11/07 00:53:44;;;;;;;1.85;1.40;;;;;;;12.05;80.57;99419.75;345367;28;1965;-73
2022/11/07 00:53:56;;;;;;;2.20;1.50;;;;;;;12.05;80.41;99417.16;345902;28;1868;-73
2022/11/07 00:54:08;;;;;;;1.80;1.40;;;;;;;12.06;80.72;99416.25;346642;28;1264;-73
2022/11/07 00:54:20;;;;;;;1.40;1.30;;;;;;;12.07;80.48;99417.94;347421;28;2396;-73
2022/11/07 00:54:32;;;;;;;1.40;1.23;;;;;;;12.08;80.38;99419.66;347297;28;1217;-73
2022/11/07 00:54:44;;;;;;;1.92;1.42;;;;;;;12.10;80.54;99412.59;346560;28;1129;-73
2022/11/07 00:54:56;;;;;;;2.05;1.60;;;;;;;12.10;80.24;99416.06;346320;28;1081;-73
2022/11/07 00:55:08;;;;;;;1.83;1.50;;;;;;;12.11;80.39;99414.28;346102;28;1278;-73
2022/11/07 00:55:20;;;;;;;1.92;1.50;;;;;;;12.12;79.89;99408.19;345468;28;2011;-73
2022/11/07 00:55:32;;;;;;;2.20;1.50;;;;;;;12.13;80.47;99412.47;346023;28;1849;-73
2022/11/07 00:55:44;;;;;;;1.83;1.48;;;;;;;12.13;80.17;99408.13;346186;28;1054;-73
2022/11/07 00:56:04;;;;;;;1.70;1.40;;;;;;;12.14;80.13;99414.16;345419;28;1692;-73
2022/11/07 00:56:19;;;;;;;1.70;1.40;;;;;;;12.15;79.98;99415.84;344975;28;1190;-73
2022/11/07 00:56:31;;;;;;;1.67;1.40;;;;;;;12.18;79.90;99413.13;344861;28;1110;-73
2022/11/07 00:56:43;;;;;;;1.83;1.50;;;;;;;12.19;79.77;99415.66;344729;28;1637;-73
2022/11/07 00:56:55;;;;;;;2.05;1.58;;;;;;;12.20;79.75;99419.13;345071;28;1788;-73
2022/11/07 00:57:07;;;;;;;1.90;1.40;;;;;;;12.21;79.55;99412.13;346332;28;1113;-73
2022/11/07 00:57:19;;;;;;;1.55;1.33;;;;;;;12.22;79.65;99417.28;346414;28;1310;-73
2022/11/07 00:57:31;;;;;;;1.58;1.40;;;;;;;12.22;79.65;99411.25;344995;28;1178;-73
2022/11/07 00:57:43;;;;;;;1.60;1.40;;;;;;;12.22;79.44;99409.47;345704;28;1343;-73
2022/11/07 00:57:55;;;;;;;1.60;1.40;;;;;;;12.24;79.65;99415.47;343653;28;1972;-73
2022/11/07 00:58:07;;;;;;;1.58;1.40;;;;;;;12.22;79.61;99414.69;343264;28;2238;-73
2022/11/07 00:58:24;;;;;;;1.70;1.30;;;;;;;12.22;79.77;99417.28;344431;28;1445;-73
2022/11/07 00:58:37;;;;;;;1.90;1.42;;;;;;;12.24;79.56;99415.47;344752;28;1205;-74
2022/11/07 00:58:58;;;;;;;2.22;1.70;;;;;;;12.23;79.24;99408.53;345078;28;1094;-74
2022/11/07 00:59:11;;;;;;;2.17;1.67;;;;;;;12.24;79.59;99415.47;344525;28;2190;-74
2022/11/07 00:59:23;;;;;;;3.30;1.70;;;;;;;12.25;79.46;99422.34;344408;28;1708;-74
2022/11/07 00:59:35;;;;;;;3.10;1.65;;;;;;;12.25;79.29;99422.34;345964;28;1668;-74
2022/11/07 00:59:47;;;;;;;3.13;1.65;;;;;;;12.25;79.42;99417.13;346467;28;1824;-74
2022/11/07 00:59:59;;;;;;;2.00;1.75;;;;;;;12.27;79.27;99417.91;347643;28;1356;-74
2022/11/07 01:00:12;;;;;;;2.15;1.60;;;;;;;12.27;79.60;99415.31;346193;28;1045;-74
2022/11/07 01:00:24;;;;;;;2.22;1.45;;;;;;;12.28;79.27;99414.41;347017;28;1351;-73